Terminal Aerodrome Forecast
Issued by NWS Tulsa, OK

Home | Current Version | Previous Version | Text Only | Print | Product List | Glossary On
Versions: 1 2 3 4 5 6 7 8 9 10 11 12 13 14 15 16 17 18
000
FTUS44 KTSA 172300
TAFFSM
TAF
KFSM 172320Z 1800/1824 05006KT P6SM SCT030 BKN050
     FM180600 VRB04KT P6SM VCTS BKN040CB
      TEMPO 1806/1810 5SM TSRA BR OVC020CB
     FM181000 VRB05KT 5SM TSRA BR OVC020CB
     FM181800 16011KT 3SM TSRA BR OVC010CB=

USA.gov is the U.S. government's official web portal to all federal, state and local government web resources and services.